LIS weather

Public forecast

Using degrees Celsius for public forecast. Weather courtesy of forecast.io.

Current aviation weather report (METAR) for Humberto Delgado Airport (Lisbon Portela Airport)

Retrieved 2020/08/14 19:30 UTC (28 minutes ago):

LPPT 141930Z 32009KT 290V360 9999 FEW020 20/15 Q1017

Aviation forecast (TAF) for Humberto Delgado Airport (Lisbon Portela Airport)

Retrieved 2020/08/14 18:18 UTC (2 hours ago):

TAF LPPT 141700Z 1418/1524 30015KT 9999 FEW035 BECMG 1421/1424 33008KT SCT012 PROB30 1505/1508 BKN008 BECMG 1510/1513 32013KT SCT040 BECMG 1518/1521 30007KT FEW015